Craig G — WDB5332 — position and weather

sailwx.info

Track history (hours):
 
Tides and Currents Weather Stations Pressure Air Temp Water Temp Dewpoint Dewpoint Depression Visibility Wind Speed Wind Dir Waves Ship Positions

Craig G

Owner: San Diego Towing & Marine Services,Inc., San Diego, CA. More information available from US FCC via Universal Licensing System and Coast Guard Vessel Documentation Center.

Last reported at 2014-Sep-28 21:13 UTC. Time now 2014-Oct-01 18:17 UTC.
Position N 33°46' W 118°13'.

Length 28 m; draft 2 m.

Type: Other ship. MMSI: 366908460.

Date/timePositionNaut miles runAvg speedWind from/ knotsBaromVisibWave heightAir tempDewpointWater temp
2014-Sep-28 21:13N 33°46' W 118°13'4 2.4
2014-Sep-28 19:33N 33°44' W 118°16'4 3.9
2014-Sep-28 18:33N 33°46' W 118°13'1 1.0
2014-Sep-28 17:33N 33°45' W 118°13'3316.5
2014-Sep-28 15:33N 33°15' W 117°57'6 6.2
2014-Sep-28 14:33N 33°09' W 117°54'4 4.1
2014-Sep-28 13:34N 33°08' W 117°50'2 2.5
2014-Sep-28 12:34N 33°06' W 117°51'1 1.0
2014-Sep-28 11:34N 33°05' W 117°50'1 1.2
2014-Sep-28 10:33N 33°04' W 117°50'2 2.0
2014-Sep-28 09:34N 33°02' W 117°49'1 1.5
2014-Sep-28 08:34N 33°01' W 117°48'1 1.3
2014-Sep-28 07:34N 33°00' W 117°47'2 2.2
2014-Sep-28 06:33N 32°59' W 117°49'4 3.6
2014-Sep-28 05:33N 32°58' W 117°45'3 3.4
2014-Sep-28 04:34N 32°58' W 117°41'1 0.9
2014-Sep-28 03:33N 32°57' W 117°41'3 3.2
2014-Sep-28 02:34N 32°56' W 117°45'1 1.4
2014-Sep-28 01:34N 32°56' W 117°43'3 3.1
2014-Sep-28 00:34N 32°57' W 117°40'1 1.3
2014-Sep-27 23:33N 32°58' W 117°41'2 2.3
2014-Sep-27 22:34N 32°60' W 117°42'2 2.3
2014-Sep-27 21:33N 33°02' W 117°43'4 4.0
2014-Sep-27 20:34N 33°03' W 117°47'1 1.1
2014-Sep-27 19:33N 33°03' W 117°49'1 0.5
2014-Sep-27 18:33N 33°03' W 117°48'2 2.4
2014-Sep-27 17:33N 33°04' W 117°51'3 2.9
2014-Sep-27 16:33N 33°06' W 117°53'4 4.1
2014-Sep-27 15:33N 33°09' W 117°56'12 8.2
2014-Sep-27 14:08N 33°13' W 118°09'2 4.0
2014-Sep-27 13:33N 33°12' W 118°07'4 4.1
2014-Sep-27 12:33N 33°12' W 118°02'3 3.5
2014-Sep-27 11:33N 33°11' W 117°58'7 6.9
2014-Sep-27 10:33N 33°07' W 117°51'2 2.1
2014-Sep-27 09:33N 33°05' W 117°51'2 2.0
2014-Sep-27 08:33N 33°04' W 117°49'1 1.3
2014-Sep-27 07:33N 33°03' W 117°47'0 0.5
2014-Sep-27 06:33N 33°04' W 117°47'4 3.7
2014-Sep-27 05:33N 33°00' W 117°47'1 1.5
2014-Sep-27 04:33N 32°59' W 117°48'3 2.9
2014-Sep-27 03:33N 32°58' W 117°45'3 2.9
2014-Sep-27 02:33N 32°57' W 117°42'3 3.1
2014-Sep-27 01:33N 32°56' W 117°38'2 2.1
2014-Sep-27 00:33N 32°57' W 117°41'3 3.3
2014-Sep-26 23:33N 32°58' W 117°45'3 3.4
2014-Sep-26 22:33N 32°58' W 117°41'3 3.3
2014-Sep-26 21:33N 32°59' W 117°44'4 4.0
2014-Sep-26 20:33N 33°01' W 117°49'1 0.9
2014-Sep-26 19:33N 33°02' W 117°48'1 0.9
2014-Sep-26 18:32N 33°03' W 117°48'1 1.2
2014-Sep-26 17:31N 33°03' W 117°49'4 4.0
2014-Sep-26 16:33N 33°06' W 117°52'4 3.9
2014-Sep-26 15:34N 33°08' W 117°55'4 3.9
2014-Sep-26 14:33N 33°12' W 117°55'4 3.9
2014-Sep-26 13:33N 33°13' W 117°60'4 3.8
2014-Sep-26 12:33N 33°12' W 118°04'1 1.1
2014-Sep-26 11:31N 33°13' W 118°04'4 3.9
2014-Sep-26 10:33N 33°13' W 117°59'8 7.8
2014-Sep-26 09:34N 33°06' W 117°54'5 5.0
2014-Sep-26 08:34N 33°02' W 117°52'1 1.2
2014-Sep-26 07:30N 33°01' W 117°53'3 3.2
2014-Sep-26 06:34N 32°60' W 117°50'3 2.9
2014-Sep-26 05:34N 32°59' W 117°53'1 1.5
2014-Sep-26 04:33N 32°58' W 117°51'4 3.7
2014-Sep-26 03:34N 32°56' W 117°48'2 1.8
2014-Sep-26 02:33N 32°55' W 117°46'2 2.1
2014-Sep-26 01:33N 32°54' W 117°44'1 1.0
2014-Sep-26 00:33N 32°55' W 117°44'0 0.3
2014-Sep-25 23:33N 32°56' W 117°44'3 2.8
2014-Sep-25 22:33N 32°57' W 117°46'1 1.5
2014-Sep-25 21:33N 32°58' W 117°45'1 1.4
2014-Sep-25 20:33N 32°59' W 117°46'1 1.1
2014-Sep-25 19:33N 33°00' W 117°47'2 1.7
2014-Sep-25 18:33N 33°00' W 117°49'4 4.2
2014-Sep-25 17:33N 33°04' W 117°52'5 5.0
2014-Sep-25 16:34N 33°08' W 117°54'3 3.4
2014-Sep-25 15:34N 33°11' W 117°57'2 2.0
2014-Sep-25 14:34N 33°09' W 117°57'0 0.5
2014-Sep-25 13:33N 33°08' W 117°57'10 9.7
2014-Sep-25 12:33N 33°18' W 117°59'1515.3
2014-Sep-25 11:34N 33°32' W 118°05'1414.5
2014-Sep-25 10:33N 33°45' W 118°13'1 0.7
2014-Sep-25 09:33N 33°46' W 118°13'1 0.7
2014-Sep-25 08:33N 33°46' W 118°13'  
2014-Sep-22 22:30N 33°46' W 118°13'0 0.0
2014-Sep-22 21:33N 33°46' W 118°13'0 0.0
2014-Sep-22 20:34N 33°46' W 118°13'  
2014-Sep-20 16:33N 33°46' W 118°13'1 0.6
2014-Sep-20 14:33N 33°45' W 118°13'2712.0
2014-Sep-20 12:18N 33°20' W 117°60'811.2
2014-Sep-20 11:33N 33°12' W 117°57'3 2.8
2014-Sep-20 10:33N 33°10' W 117°55'6 5.6
2014-Sep-20 09:33N 33°06' W 117°50'2 2.0
2014-Sep-20 08:33N 33°06' W 117°52'3 2.8
2014-Sep-20 07:33N 33°05' W 117°55'4 4.4
2014-Sep-20 06:33N 33°05' W 117°50'2 1.6
2014-Sep-20 05:32N 33°04' W 117°52'2 2.1
2014-Sep-20 04:33N 33°03' W 117°50'2 1.7
2014-Sep-20 03:33N 33°03' W 117°52'4 3.7
2014-Sep-20 02:33N 33°01' W 117°48'4 3.5
2014-Sep-20 01:33N 32°59' W 117°44'3 3.0
2014-Sep-20 00:33N 33°02' W 117°46'1 1.3
2014-Sep-19 23:33N 33°00' W 117°46'0 0.5
2014-Sep-19 22:33N 33°01' W 117°46'1 1.3
2014-Sep-19 21:33N 33°01' W 117°48'1 0.7
2014-Sep-19 20:33N 33°01' W 117°48'0 0.3
2014-Sep-19 19:33N 33°01' W 117°48'1 1.1
2014-Sep-19 18:33N 33°01' W 117°47'0 0.4
2014-Sep-19 17:33N 33°01' W 117°47'2 2.0
2014-Sep-19 16:33N 33°02' W 117°49'1 1.3
2014-Sep-19 15:33N 33°01' W 117°48'2 2.0
2014-Sep-19 14:33N 33°02' W 117°50'2 1.9
2014-Sep-19 13:33N 33°01' W 117°48'2 1.7
2014-Sep-19 12:33N 33°01' W 117°50'0 0.1
2014-Sep-19 11:33N 33°01' W 117°50'0 0.5
2014-Sep-19 10:33N 33°01' W 117°51'2 1.9
2014-Sep-19 09:33N 33°00' W 117°49'3 3.1
2014-Sep-19 08:33N 33°03' W 117°51'2 2.3
2014-Sep-19 07:33N 33°04' W 117°53'4 4.1
2014-Sep-19 06:33N 33°07' W 117°56'6 5.8
2014-Sep-19 05:33N 33°11' W 118°01'3516.3
2014-Sep-19 03:26N 33°45' W 118°13'  
Track history (hours):
 
Tides and Currents Weather Stations Pressure Air Temp Water Temp Dewpoint Dewpoint Depression Visibility Wind Speed Wind Dir Waves Ship Positions

Craig G

Owner: San Diego Towing & Marine Services,Inc., San Diego, CA. More information available from US FCC via Universal Licensing System and Coast Guard Vessel Documentation Center.

Last reported at 2014-Sep-28 21:13 UTC. Time now 2014-Oct-01 18:17 UTC.
Position N 33°46' W 118°13'.

Length 28 m; draft 2 m.

Type: Other ship. MMSI: 366908460.

Date/timePositionNaut miles runAvg speedWind from/ knotsBaromVisibWave heightAir tempDewpointWater temp
2014-Sep-28 21:13N 33°46' W 118°13'4 2.4
2014-Sep-28 19:33N 33°44' W 118°16'4 3.9
2014-Sep-28 18:33N 33°46' W 118°13'1 1.0
2014-Sep-28 17:33N 33°45' W 118°13'3316.5
2014-Sep-28 15:33N 33°15' W 117°57'6 6.2
2014-Sep-28 14:33N 33°09' W 117°54'4 4.1
2014-Sep-28 13:34N 33°08' W 117°50'2 2.5
2014-Sep-28 12:34N 33°06' W 117°51'1 1.0
2014-Sep-28 11:34N 33°05' W 117°50'1 1.2
2014-Sep-28 10:33N 33°04' W 117°50'2 2.0
2014-Sep-28 09:34N 33°02' W 117°49'1 1.5
2014-Sep-28 08:34N 33°01' W 117°48'1 1.3
2014-Sep-28 07:34N 33°00' W 117°47'2 2.2
2014-Sep-28 06:33N 32°59' W 117°49'4 3.6
2014-Sep-28 05:33N 32°58' W 117°45'3 3.4
2014-Sep-28 04:34N 32°58' W 117°41'1 0.9
2014-Sep-28 03:33N 32°57' W 117°41'3 3.2
2014-Sep-28 02:34N 32°56' W 117°45'1 1.4
2014-Sep-28 01:34N 32°56' W 117°43'3 3.1
2014-Sep-28 00:34N 32°57' W 117°40'1 1.3
2014-Sep-27 23:33N 32°58' W 117°41'2 2.3
2014-Sep-27 22:34N 32°60' W 117°42'2 2.3
2014-Sep-27 21:33N 33°02' W 117°43'4 4.0
2014-Sep-27 20:34N 33°03' W 117°47'1 1.1
2014-Sep-27 19:33N 33°03' W 117°49'1 0.5
2014-Sep-27 18:33N 33°03' W 117°48'2 2.4
2014-Sep-27 17:33N 33°04' W 117°51'3 2.9
2014-Sep-27 16:33N 33°06' W 117°53'4 4.1
2014-Sep-27 15:33N 33°09' W 117°56'12 8.2
2014-Sep-27 14:08N 33°13' W 118°09'2 4.0
2014-Sep-27 13:33N 33°12' W 118°07'4 4.1
2014-Sep-27 12:33N 33°12' W 118°02'3 3.5
2014-Sep-27 11:33N 33°11' W 117°58'7 6.9
2014-Sep-27 10:33N 33°07' W 117°51'2 2.1
2014-Sep-27 09:33N 33°05' W 117°51'2 2.0
2014-Sep-27 08:33N 33°04' W 117°49'1 1.3
2014-Sep-27 07:33N 33°03' W 117°47'0 0.5
2014-Sep-27 06:33N 33°04' W 117°47'4 3.7
2014-Sep-27 05:33N 33°00' W 117°47'1 1.5
2014-Sep-27 04:33N 32°59' W 117°48'3 2.9
2014-Sep-27 03:33N 32°58' W 117°45'3 2.9
2014-Sep-27 02:33N 32°57' W 117°42'3 3.1
2014-Sep-27 01:33N 32°56' W 117°38'2 2.1
2014-Sep-27 00:33N 32°57' W 117°41'3 3.3
2014-Sep-26 23:33N 32°58' W 117°45'3 3.4
2014-Sep-26 22:33N 32°58' W 117°41'3 3.3
2014-Sep-26 21:33N 32°59' W 117°44'4 4.0
2014-Sep-26 20:33N 33°01' W 117°49'1 0.9
2014-Sep-26 19:33N 33°02' W 117°48'1 0.9
2014-Sep-26 18:32N 33°03' W 117°48'1 1.2
2014-Sep-26 17:31N 33°03' W 117°49'4 4.0
2014-Sep-26 16:33N 33°06' W 117°52'4 3.9
2014-Sep-26 15:34N 33°08' W 117°55'4 3.9
2014-Sep-26 14:33N 33°12' W 117°55'4 3.9
2014-Sep-26 13:33N 33°13' W 117°60'4 3.8
2014-Sep-26 12:33N 33°12' W 118°04'1 1.1
2014-Sep-26 11:31N 33°13' W 118°04'4 3.9
2014-Sep-26 10:33N 33°13' W 117°59'8 7.8
2014-Sep-26 09:34N 33°06' W 117°54'5 5.0
2014-Sep-26 08:34N 33°02' W 117°52'1 1.2
2014-Sep-26 07:30N 33°01' W 117°53'3 3.2
2014-Sep-26 06:34N 32°60' W 117°50'3 2.9
2014-Sep-26 05:34N 32°59' W 117°53'1 1.5
2014-Sep-26 04:33N 32°58' W 117°51'4 3.7
2014-Sep-26 03:34N 32°56' W 117°48'2 1.8
2014-Sep-26 02:33N 32°55' W 117°46'2 2.1
2014-Sep-26 01:33N 32°54' W 117°44'1 1.0
2014-Sep-26 00:33N 32°55' W 117°44'0 0.3
2014-Sep-25 23:33N 32°56' W 117°44'3 2.8
2014-Sep-25 22:33N 32°57' W 117°46'1 1.5
2014-Sep-25 21:33N 32°58' W 117°45'1 1.4
2014-Sep-25 20:33N 32°59' W 117°46'1 1.1
2014-Sep-25 19:33N 33°00' W 117°47'2 1.7
2014-Sep-25 18:33N 33°00' W 117°49'4 4.2
2014-Sep-25 17:33N 33°04' W 117°52'5 5.0
2014-Sep-25 16:34N 33°08' W 117°54'3 3.4
2014-Sep-25 15:34N 33°11' W 117°57'2 2.0
2014-Sep-25 14:34N 33°09' W 117°57'0 0.5
2014-Sep-25 13:33N 33°08' W 117°57'10 9.7
2014-Sep-25 12:33N 33°18' W 117°59'1515.3
2014-Sep-25 11:34N 33°32' W 118°05'1414.5
2014-Sep-25 10:33N 33°45' W 118°13'1 0.7
2014-Sep-25 09:33N 33°46' W 118°13'1 0.7
2014-Sep-25 08:33N 33°46' W 118°13'  
2014-Sep-22 22:30N 33°46' W 118°13'0 0.0
2014-Sep-22 21:33N 33°46' W 118°13'0 0.0
2014-Sep-22 20:34N 33°46' W 118°13'  
2014-Sep-20 16:33N 33°46' W 118°13'1 0.6
2014-Sep-20 14:33N 33°45' W 118°13'2712.0
2014-Sep-20 12:18N 33°20' W 117°60'811.2
2014-Sep-20 11:33N 33°12' W 117°57'3 2.8
2014-Sep-20 10:33N 33°10' W 117°55'6 5.6
2014-Sep-20 09:33N 33°06' W 117°50'2 2.0
2014-Sep-20 08:33N 33°06' W 117°52'3 2.8
2014-Sep-20 07:33N 33°05' W 117°55'4 4.4
2014-Sep-20 06:33N 33°05' W 117°50'2 1.6
2014-Sep-20 05:32N 33°04' W 117°52'2 2.1
2014-Sep-20 04:33N 33°03' W 117°50'2 1.7
2014-Sep-20 03:33N 33°03' W 117°52'4 3.7
2014-Sep-20 02:33N 33°01' W 117°48'4 3.5
2014-Sep-20 01:33N 32°59' W 117°44'3 3.0
2014-Sep-20 00:33N 33°02' W 117°46'1 1.3
2014-Sep-19 23:33N 33°00' W 117°46'0 0.5
2014-Sep-19 22:33N 33°01' W 117°46'1 1.3
2014-Sep-19 21:33N 33°01' W 117°48'1 0.7
2014-Sep-19 20:33N 33°01' W 117°48'0 0.3
2014-Sep-19 19:33N 33°01' W 117°48'1 1.1
2014-Sep-19 18:33N 33°01' W 117°47'0 0.4
2014-Sep-19 17:33N 33°01' W 117°47'2 2.0
2014-Sep-19 16:33N 33°02' W 117°49'1 1.3
2014-Sep-19 15:33N 33°01' W 117°48'2 2.0
2014-Sep-19 14:33N 33°02' W 117°50'2 1.9
2014-Sep-19 13:33N 33°01' W 117°48'2 1.7
2014-Sep-19 12:33N 33°01' W 117°50'0 0.1
2014-Sep-19 11:33N 33°01' W 117°50'0 0.5
2014-Sep-19 10:33N 33°01' W 117°51'2 1.9
2014-Sep-19 09:33N 33°00' W 117°49'3 3.1
2014-Sep-19 08:33N 33°03' W 117°51'2 2.3
2014-Sep-19 07:33N 33°04' W 117°53'4 4.1
2014-Sep-19 06:33N 33°07' W 117°56'6 5.8
2014-Sep-19 05:33N 33°11' W 118°01'3516.3
2014-Sep-19 03:26N 33°45' W 118°13'  

Dump ship's entire track history